Strandburg, SD (57265)

3:23 AM CDT on July 31, 2014 (GMT -0500)
Turkey Ridge (KSDWATER6) Elev 1795 ft | 44.91 °N, 97.08 °W | Change Station

Current weather conditions updated 3 minutes ago

Clear
Clear
54.0 °F
Feels Like 54.0 °F
N
0.0
Wind Variable Wind from ENE
Gusts 3.0 mph

Today is forecast to be Warmer than yesterday.

Today
High -- | Low -- °F
--% Chance of Precip.
Yesterday
High -- | Low -- °F
Precip. -- in
6:11 AM 8:55 PM
Waxing Crescent, 17% visible
Pressure 30.07 in
Visibility 10.0 miles
Clouds Clear
Dew Point 51 °F
Humidity 91%
Rainfall 0.00 in
Snow Depth Not available.
UV 0 out of 12
Pollen 6.60 out of 12
Air Quality Not available.
Flu Activity Not available.
METAR KATY 310753Z AUTO 00000KT 10SM CLR 14/12 A3009 RMK AO2 SLP183 T01440122

More Conditions Fewer Conditions

Pressure 30.07 in
Visibility 10.0 miles
Clouds Clear
Dew Point 51 °F
Humidity 91%
Rainfall 0.00 in
Snow Depth Not available.
UV 0 out of 12
Pollen 6.60 out of 12
Air Quality Not available.
Flu Activity Not available.
METAR KATY 310753Z AUTO 00000KT 10SM CLR 14/12 A3009 RMK AO2 SLP183 T01440122

More Conditions Fewer Conditions

10-Day Weather Forecast

Almanac

Astronomy

Jul. 31, 2014 Rise Set
Actual Time 6:11 AM CDT 8:55 PM CDT
Civil Twilight 5:37 AM CDT 9:28 PM CDT
Nautical Twilight 4:54 AM CDT 10:11 PM CDT
Astronomical Twilight 4:04 AM CDT 11:00 PM CDT
Moon 10:54 AM CDT 10:53 PM CDT
Length of Visible Light 15h 51m
Length of Day
14h 43m
Tomorrow will be 2m 24s shorter.
Waxing Crescent, 17% of the Moon is Illuminated
Today
Waxing Crescent
Aug 3
First Quarter
Aug 10
Full
Aug 17
Last Quarter
Aug 25
New

Today's Extremes

State Highs State Lows

Community

WunderPhotos

Upload Photos

1,739,258 photos uploaded!

Nearby

Snow Depth

Station Depth Elevation
North Rapid Creek 0 in 6130 ft
Blind Park 0 in 6890 ft

Earthquake Activity

City Distance Mag. Time & Date
No recent earthquake activity has been reported nearby.
Minimum magnitude displayed is 2.5.

Coastal Water Temperatures

Place Temperature
No Stations Reporting

Nearby Weather Stations

Station Location Temp. Dew Point Humidity Wind Precip. Elev Updated Type
Turkey Ridge, Watertown, SD 54.0 °F 51 °F 91% ENE  at  0.0 mph 0.00 in / hr 1795 ft 3:19 AM CDT Normal
East side of Watertown, SD, Watertown, SD 53.1 °F 52 °F 96% WSW  at  0.0 mph - / hr 1732 ft 3:21 AM CDT Normal
derby downs, Watertown, SD 59.3 °F 55 °F 86% North  at  0.0 mph - / hr 1810 ft 3:09 AM CDT Normal
Rural Summit, Summit, SD 54.5 °F 53 °F 94% NE  at  0.0 mph - / hr 1913 ft 3:18 AM CDT Normal
NonFedAWOS MILBANK , Milbank, SD 55 °F 52 °F 88% North  at  - 0.00 in / hr 1116 ft 2:35 AM CDT MADIS
South Lake Pelican, Watertown, SD 53.6 °F 51 °F 91% NW  at  0.0 mph 0.00 in / hr 1726 ft 3:23 AM CDT Rapid Fire

Show More Stations Show Fewer Stations